»·PEaware :: N713AG KLGF-KSAN

N713AG :: KLGF-KSAN

FLIGHT INFORMATION

Flight Status: Arrived
Operator: Privately registered:
United States
More flights under this callsign
Pilot: Sanjiv S. (4490)
Aircraft: SOCATA TBM-900
(TBM9)
More flights by this aircraft type
Origin: KLGF Laguna AAF
United States
Destination: KSAN San Diego Intl-Lindbergh
United States
More flights between these airports :: More routes between these airports
Route: BZA V66 MZB
File this flight plan on PilotEdge
Remarks:
Altitude:
(Current/Filed)
14,000ft
Speed:
(Current/Filed)
240kts
Departed: 19-Nov-18 09:30 AM
Arrived: 19-Nov-18 10:22 AM
Distance/Time
Traveled:
140nm/0:52
Distance/Time
To Go:
Arrived

Flight Plot

Page will automatically refresh every two minutes.

Flight plan parsing failed; only flown route is shown


Map Options




Map Legend


Flown Route
Filed Route
Departure Airport
Arrival Airport
Navaid (VOR, NDB)
Fix

Horizontal Profiles

Position Reports

Time Latitude Longitude Heading Altitude Ground
Speed
19-Nov-18 09:13 32.866341 -114.397003 189 382ft 0kts
19-Nov-18 09:14 32.866341 -114.397003 189 382ft 0kts
19-Nov-18 09:15 32.866341 -114.397003 189 382ft 0kts
19-Nov-18 09:16 32.866341 -114.397003 189 382ft 0kts
19-Nov-18 09:17 32.866341 -114.397003 189 382ft 0kts
19-Nov-18 09:18 32.866341 -114.397003 189 382ft 0kts
19-Nov-18 09:19 32.866341 -114.397003 189 382ft 0kts
19-Nov-18 09:20 32.866341 -114.397003 189 382ft 0kts
19-Nov-18 09:21 32.866341 -114.397003 189 382ft 0kts
19-Nov-18 09:22 32.866341 -114.397003 189 382ft 0kts
19-Nov-18 09:23 32.866341 -114.397003 189 382ft 0kts
19-Nov-18 09:24 32.866341 -114.397003 189 382ft 0kts
19-Nov-18 09:25 32.866341 -114.397003 189 382ft 0kts
19-Nov-18 09:26 32.866340 -114.397003 189 382ft 0kts
19-Nov-18 09:27 32.866340 -114.397003 189 382ft 0kts
19-Nov-18 09:28 32.866340 -114.397003 189 382ft 0kts
19-Nov-18 09:29 32.865850 -114.396875 105 381ft 2kts
19-Nov-18 09:30 32.865073 -114.395187 25 382ft 11kts
19-Nov-18 09:31 32.870473 -114.393943 7 398ft 28kts
19-Nov-18 09:32 32.874752 -114.392987 191 411ft 0kts
19-Nov-18 09:33 32.871796 -114.393693 189 402ft 80kts
19-Nov-18 09:34 32.845648 -114.403236 224 1740ft 119kts
19-Nov-18 09:35 32.830769 -114.434300 253 3138ft 132kts
19-Nov-18 09:36 32.821512 -114.473135 253 4337ft 159kts
19-Nov-18 09:37 32.810270 -114.511348 240 5507ft 166kts
19-Nov-18 09:38 32.792711 -114.549469 242 6662ft 184kts
19-Nov-18 09:39 32.774436 -114.589191 243 7784ft 192kts
19-Nov-18 09:40 32.767426 -114.639947 271 9048ft 191kts
19-Nov-18 09:41 32.766621 -114.686790 270 10166ft 194kts
19-Nov-18 09:42 32.766297 -114.705653 269 10607ft 197kts
19-Nov-18 09:43 32.765124 -114.766639 268 12070ft 197kts
19-Nov-18 09:44 32.763956 -114.827399 268 13646ft 194kts
19-Nov-18 09:45 32.762658 -114.893585 268 14024ft 241kts
19-Nov-18 09:46 32.761114 -114.969760 268 14007ft 264kts
19-Nov-18 09:47 32.759443 -115.049720 268 13983ft 271kts
19-Nov-18 09:48 32.757709 -115.130300 268 13982ft 273kts
19-Nov-18 09:49 32.756007 -115.207143 268 13981ft 273kts
19-Nov-18 09:50 32.754310 -115.281795 268 13981ft 273kts
19-Nov-18 09:51 32.752684 -115.351405 268 13981ft 273kts
19-Nov-18 09:52 32.751019 -115.420970 268 13981ft 273kts
19-Nov-18 09:53 32.749378 -115.487978 268 13981ft 273kts
19-Nov-18 09:54 32.750029 -115.553537 271 13981ft 273kts
19-Nov-18 09:55 32.751761 -115.620754 271 13981ft 273kts
19-Nov-18 09:56 32.753329 -115.683158 271 13981ft 273kts
19-Nov-18 09:57 32.754685 -115.738181 271 13981ft 273kts
19-Nov-18 09:58 32.756562 -115.816053 271 13981ft 273kts
19-Nov-18 09:59 32.758096 -115.881191 271 13981ft 273kts
19-Nov-18 10:00 32.759358 -115.935928 271 13981ft 273kts
19-Nov-18 10:01 32.761137 -116.014867 271 13981ft 273kts
19-Nov-18 10:02 32.762409 -116.072767 271 13981ft 273kts
19-Nov-18 10:03 32.764125 -116.152911 271 13981ft 273kts
19-Nov-18 10:04 32.765612 -116.224391 271 13981ft 273kts
19-Nov-18 10:05 32.766806 -116.283203 271 13981ft 273kts
19-Nov-18 10:06 32.768171 -116.352158 271 13890ft 275kts
19-Nov-18 10:07 32.768747 -116.381860 271 13468ft 279kts
19-Nov-18 10:08 32.770144 -116.455653 271 12260ft 287kts
19-Nov-18 10:09 32.771514 -116.529345 271 10683ft 278kts
19-Nov-18 10:10 32.765305 -116.601661 260 9056ft 270kts
19-Nov-18 10:11 32.756918 -116.660024 260 7710ft 260kts
19-Nov-18 10:12 32.750292 -116.706019 260 6558ft 242kts
19-Nov-18 10:13 32.742217 -116.762086 260 5092ft 230kts
19-Nov-18 10:14 32.734870 -116.813122 260 4985ft 201kts
19-Nov-18 10:15 32.728248 -116.859342 260 4730ft 191kts
19-Nov-18 10:16 32.722077 -116.902197 260 3979ft 168kts
19-Nov-18 10:17 32.716114 -116.943767 260 4015ft 186kts
19-Nov-18 10:18 32.709685 -116.988786 260 3484ft 202kts
19-Nov-18 10:19 32.703287 -117.033437 260 2621ft 190kts
19-Nov-18 10:20 32.705154 -117.074816 294 1517ft 152kts
19-Nov-18 10:21 32.714022 -117.107474 288 942ft 133kts
19-Nov-18 10:22 32.720407 -117.137258 287 642ft 135kts
19-Nov-18 10:23 32.727312 -117.164114 287 347ft 95kts
19-Nov-18 10:24 32.732312 -117.184598 285 18ft 71kts
19-Nov-18 10:25 32.733883 -117.186340 109 18ft 20kts
19-Nov-18 10:26 32.732681 -117.181290 106 18ft 23kts
19-Nov-18 10:27 32.732385 -117.177706 192 18ft 2kts
19-Nov-18 10:28 32.732378 -117.177708 192 18ft 0kts
19-Nov-18 10:29 32.732378 -117.177708 192 18ft 0kts

Navigation Log

Ident Type
Flight plan parsing failed, navigation log unavailable